sensor_id;sensor_type;location;lat;lon;timestamp;P1;durP1;ratioP1;P2;durP2;ratioP2
4323;SDS011;2175;51.018;6.994;2023-12-28T00:00:10;5.10;;;2.87;;
4323;SDS011;2175;51.018;6.994;2023-12-28T00:02:36;7.20;;;3.70;;
4323;SDS011;2175;51.018;6.994;2023-12-28T00:05:02;6.60;;;3.77;;
4323;SDS011;2175;51.018;6.994;2023-12-28T00:07:28;5.80;;;3.43;;
4323;SDS011;2175;51.018;6.994;2023-12-28T00:09:54;7.33;;;3.27;;
4323;SDS011;2175;51.018;6.994;2023-12-28T00:12:20;6.60;;;3.97;;
4323;SDS011;2175;51.018;6.994;2023-12-28T00:14:47;6.30;;;3.50;;
4323;SDS011;2175;51.018;6.994;2023-12-28T00:17:14;13.60;;;3.87;;
4323;SDS011;2175;51.018;6.994;2023-12-28T00:19:40;7.03;;;3.53;;
4323;SDS011;2175;51.018;6.994;2023-12-28T00:22:06;5.13;;;3.20;;
4323;SDS011;2175;51.018;6.994;2023-12-28T00:24:32;4.63;;;2.83;;
4323;SDS011;2175;51.018;6.994;2023-12-28T00:26:58;5.50;;;3.17;;
4323;SDS011;2175;51.018;6.994;2023-12-28T00:29:24;4.60;;;3.10;;
4323;SDS011;2175;51.018;6.994;2023-12-28T00:31:50;6.77;;;3.20;;
4323;SDS011;2175;51.018;6.994;2023-12-28T00:34:16;6.40;;;2.60;;
4323;SDS011;2175;51.018;6.994;2023-12-28T00:36:42;5.33;;;2.97;;
4323;SDS011;2175;51.018;6.994;2023-12-28T00:39:08;3.43;;;2.60;;
4323;SDS011;2175;51.018;6.994;2023-12-28T00:41:34;4.33;;;2.40;;
4323;SDS011;2175;51.018;6.994;2023-12-28T00:44:00;5.13;;;2.43;;
4323;SDS011;2175;51.018;6.994;2023-12-28T00:46:27;7.60;;;3.17;;
4323;SDS011;2175;51.018;6.994;2023-12-28T00:48:53;3.50;;;2.30;;
4323;SDS011;2175;51.018;6.994;2023-12-28T00:51:19;5.17;;;2.50;;
4323;SDS011;2175;51.018;6.994;2023-12-28T00:53:46;4.07;;;2.50;;
4323;SDS011;2175;51.018;6.994;2023-12-28T00:56:12;4.03;;;2.73;;
4323;SDS011;2175;51.018;6.994;2023-12-28T00:58:38;5.80;;;3.07;;
4323;SDS011;2175;51.018;6.994;2023-12-28T01:01:05;4.50;;;2.60;;
4323;SDS011;2175;51.018;6.994;2023-12-28T01:03:31;4.57;;;2.70;;
4323;SDS011;2175;51.018;6.994;2023-12-28T01:05:57;3.77;;;2.67;;
4323;SDS011;2175;51.018;6.994;2023-12-28T01:08:23;5.00;;;2.70;;
4323;SDS011;2175;51.018;6.994;2023-12-28T01:10:49;3.00;;;2.20;;
4323;SDS011;2175;51.018;6.994;2023-12-28T01:13:15;3.47;;;2.40;;
4323;SDS011;2175;51.018;6.994;2023-12-28T01:15:41;6.70;;;2.80;;
4323;SDS011;2175;51.018;6.994;2023-12-28T01:18:07;4.97;;;2.50;;
4323;SDS011;2175;51.018;6.994;2023-12-28T01:20:33;5.83;;;2.67;;
4323;SDS011;2175;51.018;6.994;2023-12-28T01:22:59;4.30;;;2.70;;
4323;SDS011;2175;51.018;6.994;2023-12-28T01:25:25;4.50;;;2.80;;
4323;SDS011;2175;51.018;6.994;2023-12-28T01:27:51;4.13;;;2.60;;
4323;SDS011;2175;51.018;6.994;2023-12-28T01:30:17;6.13;;;2.77;;
4323;SDS011;2175;51.018;6.994;2023-12-28T01:32:43;4.00;;;2.20;;
4323;SDS011;2175;51.018;6.994;2023-12-28T01:35:09;5.00;;;2.50;;
4323;SDS011;2175;51.018;6.994;2023-12-28T01:37:35;4.53;;;2.80;;
4323;SDS011;2175;51.018;6.994;2023-12-28T01:40:01;5.30;;;2.60;;
4323;SDS011;2175;51.018;6.994;2023-12-28T01:42:28;3.70;;;2.77;;
4323;SDS011;2175;51.018;6.994;2023-12-28T01:44:56;7.13;;;3.33;;
4323;SDS011;2175;51.018;6.994;2023-12-28T01:47:23;5.00;;;2.80;;
4323;SDS011;2175;51.018;6.994;2023-12-28T01:49:49;4.50;;;2.60;;
4323;SDS011;2175;51.018;6.994;2023-12-28T01:52:14;7.27;;;2.47;;
4323;SDS011;2175;51.018;6.994;2023-12-28T01:54:40;3.80;;;2.33;;
4323;SDS011;2175;51.018;6.994;2023-12-28T01:57:07;4.17;;;2.20;;
4323;SDS011;2175;51.018;6.994;2023-12-28T01:59:33;3.53;;;2.30;;
4323;SDS011;2175;51.018;6.994;2023-12-28T02:01:59;3.50;;;2.10;;
4323;SDS011;2175;51.018;6.994;2023-12-28T02:04:26;4.77;;;2.37;;
4323;SDS011;2175;51.018;6.994;2023-12-28T02:06:57;2.70;;;1.93;;
4323;SDS011;2175;51.018;6.994;2023-12-28T02:09:23;3.03;;;1.90;;
4323;SDS011;2175;51.018;6.994;2023-12-28T02:11:50;2.50;;;1.90;;
4323;SDS011;2175;51.018;6.994;2023-12-28T02:14:16;2.93;;;1.87;;
4323;SDS011;2175;51.018;6.994;2023-12-28T02:16:46;3.40;;;2.03;;
4323;SDS011;2175;51.018;6.994;2023-12-28T02:19:58;3.10;;;1.90;;
4323;SDS011;2175;51.018;6.994;2023-12-28T02:21:59;2.53;;;1.80;;
4323;SDS011;2175;51.018;6.994;2023-12-28T02:24:27;2.10;;;1.70;;
4323;SDS011;2175;51.018;6.994;2023-12-28T02:26:53;3.80;;;2.23;;
4323;SDS011;2175;51.018;6.994;2023-12-28T02:29:19;3.40;;;1.93;;
4323;SDS011;2175;51.018;6.994;2023-12-28T02:31:46;3.07;;;1.93;;
4323;SDS011;2175;51.018;6.994;2023-12-28T02:34:17;1.90;;;1.43;;
4323;SDS011;2175;51.018;6.994;2023-12-28T02:36:45;1.80;;;1.50;;
4323;SDS011;2175;51.018;6.994;2023-12-28T02:39:11;1.80;;;1.40;;
4323;SDS011;2175;51.018;6.994;2023-12-28T02:41:40;2.40;;;1.80;;
4323;SDS011;2175;51.018;6.994;2023-12-28T02:44:06;3.60;;;1.80;;
4323;SDS011;2175;51.018;6.994;2023-12-28T02:46:32;3.27;;;2.07;;
4323;SDS011;2175;51.018;6.994;2023-12-28T02:48:58;2.53;;;1.70;;
4323;SDS011;2175;51.018;6.994;2023-12-28T02:51:24;2.33;;;1.60;;
4323;SDS011;2175;51.018;6.994;2023-12-28T02:53:50;1.90;;;1.50;;
4323;SDS011;2175;51.018;6.994;2023-12-28T02:56:16;2.23;;;1.50;;
4323;SDS011;2175;51.018;6.994;2023-12-28T02:58:42;1.80;;;1.43;;
4323;SDS011;2175;51.018;6.994;2023-12-28T03:01:08;2.90;;;1.70;;
4323;SDS011;2175;51.018;6.994;2023-12-28T03:03:34;1.70;;;1.40;;
4323;SDS011;2175;51.018;6.994;2023-12-28T03:06:00;2.10;;;1.50;;
4323;SDS011;2175;51.018;6.994;2023-12-28T03:08:26;2.43;;;1.60;;
4323;SDS011;2175;51.018;6.994;2023-12-28T03:10:52;4.90;;;1.60;;
4323;SDS011;2175;51.018;6.994;2023-12-28T03:13:20;2.07;;;1.63;;
4323;SDS011;2175;51.018;6.994;2023-12-28T03:15:46;1.90;;;1.43;;
4323;SDS011;2175;51.018;6.994;2023-12-28T03:18:12;2.30;;;1.50;;
4323;SDS011;2175;51.018;6.994;2023-12-28T03:20:38;2.60;;;1.70;;
4323;SDS011;2175;51.018;6.994;2023-12-28T03:23:04;2.40;;;1.70;;
4323;SDS011;2175;51.018;6.994;2023-12-28T03:25:30;3.40;;;2.00;;
4323;SDS011;2175;51.018;6.994;2023-12-28T03:27:56;2.60;;;1.90;;
4323;SDS011;2175;51.018;6.994;2023-12-28T03:30:22;2.37;;;1.60;;
4323;SDS011;2175;51.018;6.994;2023-12-28T03:32:48;3.63;;;1.80;;
4323;SDS011;2175;51.018;6.994;2023-12-28T03:35:14;4.10;;;2.10;;
4323;SDS011;2175;51.018;6.994;2023-12-28T03:37:40;4.60;;;2.20;;
4323;SDS011;2175;51.018;6.994;2023-12-28T03:40:06;2.87;;;1.90;;
4323;SDS011;2175;51.018;6.994;2023-12-28T03:42:32;3.30;;;1.90;;
4323;SDS011;2175;51.018;6.994;2023-12-28T03:44:58;4.93;;;2.10;;
4323;SDS011;2175;51.018;6.994;2023-12-28T03:47:24;5.27;;;2.20;;
4323;SDS011;2175;51.018;6.994;2023-12-28T03:49:50;4.30;;;2.20;;
4323;SDS011;2175;51.018;6.994;2023-12-28T03:52:16;3.67;;;2.17;;
4323;SDS011;2175;51.018;6.994;2023-12-28T03:54:42;2.60;;;2.00;;
4323;SDS011;2175;51.018;6.994;2023-12-28T03:57:08;5.27;;;2.37;;
4323;SDS011;2175;51.018;6.994;2023-12-28T03:59:35;3.77;;;2.10;;
4323;SDS011;2175;51.018;6.994;2023-12-28T04:02:01;2.67;;;2.00;;
4323;SDS011;2175;51.018;6.994;2023-12-28T04:04:27;3.90;;;2.10;;
4323;SDS011;2175;51.018;6.994;2023-12-28T04:06:53;3.40;;;2.20;;
4323;SDS011;2175;51.018;6.994;2023-12-28T04:09:19;3.83;;;2.10;;
4323;SDS011;2175;51.018;6.994;2023-12-28T04:11:46;2.27;;;1.90;;
4323;SDS011;2175;51.018;6.994;2023-12-28T04:14:12;3.60;;;2.10;;
4323;SDS011;2175;51.018;6.994;2023-12-28T04:16:38;5.33;;;2.30;;
4323;SDS011;2175;51.018;6.994;2023-12-28T04:19:04;3.20;;;2.17;;
4323;SDS011;2175;51.018;6.994;2023-12-28T04:21:30;5.20;;;2.17;;
4323;SDS011;2175;51.018;6.994;2023-12-28T04:23:56;2.73;;;1.93;;
4323;SDS011;2175;51.018;6.994;2023-12-28T04:26:22;3.20;;;2.00;;
4323;SDS011;2175;51.018;6.994;2023-12-28T04:28:48;4.43;;;2.10;;
4323;SDS011;2175;51.018;6.994;2023-12-28T04:31:14;2.60;;;2.20;;
4323;SDS011;2175;51.018;6.994;2023-12-28T04:33:40;4.43;;;2.10;;
4323;SDS011;2175;51.018;6.994;2023-12-28T04:36:06;3.37;;;2.30;;
4323;SDS011;2175;51.018;6.994;2023-12-28T04:38:32;2.67;;;2.00;;
4323;SDS011;2175;51.018;6.994;2023-12-28T04:40:59;4.37;;;2.50;;
4323;SDS011;2175;51.018;6.994;2023-12-28T04:43:25;3.40;;;2.30;;
4323;SDS011;2175;51.018;6.994;2023-12-28T04:45:51;4.33;;;2.47;;
4323;SDS011;2175;51.018;6.994;2023-12-28T04:48:17;2.43;;;1.93;;
4323;SDS011;2175;51.018;6.994;2023-12-28T04:50:46;4.00;;;2.40;;
4323;SDS011;2175;51.018;6.994;2023-12-28T04:53:12;2.80;;;2.17;;
4323;SDS011;2175;51.018;6.994;2023-12-28T04:55:38;6.00;;;2.47;;
4323;SDS011;2175;51.018;6.994;2023-12-28T04:58:04;5.00;;;2.20;;
4323;SDS011;2175;51.018;6.994;2023-12-28T05:00:30;2.97;;;2.10;;
4323;SDS011;2175;51.018;6.994;2023-12-28T05:02:56;3.60;;;2.53;;
4323;SDS011;2175;51.018;6.994;2023-12-28T05:05:22;3.10;;;2.30;;
4323;SDS011;2175;51.018;6.994;2023-12-28T05:07:48;3.20;;;2.30;;
4323;SDS011;2175;51.018;6.994;2023-12-28T05:10:15;3.37;;;2.30;;
4323;SDS011;2175;51.018;6.994;2023-12-28T05:12:41;3.30;;;2.33;;
4323;SDS011;2175;51.018;6.994;2023-12-28T05:15:07;3.40;;;2.60;;
4323;SDS011;2175;51.018;6.994;2023-12-28T05:17:33;4.13;;;2.40;;
4323;SDS011;2175;51.018;6.994;2023-12-28T05:19:59;4.17;;;2.03;;
4323;SDS011;2175;51.018;6.994;2023-12-28T05:22:25;3.80;;;2.50;;
4323;SDS011;2175;51.018;6.994;2023-12-28T05:24:50;3.60;;;2.30;;
4323;SDS011;2175;51.018;6.994;2023-12-28T05:27:16;3.13;;;2.37;;
4323;SDS011;2175;51.018;6.994;2023-12-28T05:29:42;2.73;;;2.00;;
4323;SDS011;2175;51.018;6.994;2023-12-28T05:32:09;7.23;;;2.23;;
4323;SDS011;2175;51.018;6.994;2023-12-28T05:34:35;4.10;;;2.47;;
4323;SDS011;2175;51.018;6.994;2023-12-28T05:37:01;3.77;;;2.17;;
4323;SDS011;2175;51.018;6.994;2023-12-28T05:39:27;7.40;;;2.57;;
4323;SDS011;2175;51.018;6.994;2023-12-28T05:41:53;5.60;;;2.33;;
4323;SDS011;2175;51.018;6.994;2023-12-28T05:44:19;3.87;;;2.10;;
4323;SDS011;2175;51.018;6.994;2023-12-28T05:46:46;4.60;;;2.53;;
4323;SDS011;2175;51.018;6.994;2023-12-28T05:49:12;4.17;;;2.37;;
4323;SDS011;2175;51.018;6.994;2023-12-28T05:51:41;3.17;;;2.30;;
4323;SDS011;2175;51.018;6.994;2023-12-28T05:54:07;4.30;;;2.33;;
4323;SDS011;2175;51.018;6.994;2023-12-28T05:56:33;4.17;;;2.50;;
4323;SDS011;2175;51.018;6.994;2023-12-28T05:58:59;3.90;;;2.40;;
4323;SDS011;2175;51.018;6.994;2023-12-28T06:01:25;4.27;;;2.37;;
4323;SDS011;2175;51.018;6.994;2023-12-28T06:03:52;4.87;;;2.57;;
4323;SDS011;2175;51.018;6.994;2023-12-28T06:06:18;5.00;;;2.70;;
4323;SDS011;2175;51.018;6.994;2023-12-28T06:08:45;4.53;;;2.50;;
4323;SDS011;2175;51.018;6.994;2023-12-28T06:11:11;3.93;;;2.70;;
4323;SDS011;2175;51.018;6.994;2023-12-28T06:13:37;7.90;;;2.50;;
4323;SDS011;2175;51.018;6.994;2023-12-28T06:16:03;7.33;;;2.60;;
4323;SDS011;2175;51.018;6.994;2023-12-28T06:18:29;3.90;;;2.70;;
4323;SDS011;2175;51.018;6.994;2023-12-28T06:20:56;5.70;;;2.77;;
4323;SDS011;2175;51.018;6.994;2023-12-28T06:23:22;5.27;;;2.40;;
4323;SDS011;2175;51.018;6.994;2023-12-28T06:25:48;4.13;;;2.30;;
4323;SDS011;2175;51.018;6.994;2023-12-28T06:28:14;10.43;;;3.40;;
4323;SDS011;2175;51.018;6.994;2023-12-28T06:30:40;5.00;;;2.60;;
4323;SDS011;2175;51.018;6.994;2023-12-28T06:33:05;4.07;;;2.77;;
4323;SDS011;2175;51.018;6.994;2023-12-28T06:35:31;4.10;;;2.63;;
4323;SDS011;2175;51.018;6.994;2023-12-28T06:37:57;5.27;;;3.10;;
4323;SDS011;2175;51.018;6.994;2023-12-28T06:40:23;4.20;;;2.50;;
4323;SDS011;2175;51.018;6.994;2023-12-28T06:42:49;11.07;;;2.93;;
4323;SDS011;2175;51.018;6.994;2023-12-28T06:45:15;3.73;;;2.60;;
4323;SDS011;2175;51.018;6.994;2023-12-28T06:47:41;4.80;;;2.80;;
4323;SDS011;2175;51.018;6.994;2023-12-28T06:50:10;5.80;;;2.73;;
4323;SDS011;2175;51.018;6.994;2023-12-28T06:52:36;4.00;;;2.43;;
4323;SDS011;2175;51.018;6.994;2023-12-28T06:55:02;3.67;;;2.90;;
4323;SDS011;2175;51.018;6.994;2023-12-28T06:57:28;4.50;;;2.50;;
4323;SDS011;2175;51.018;6.994;2023-12-28T06:59:54;5.83;;;3.20;;
4323;SDS011;2175;51.018;6.994;2023-12-28T07:02:21;7.60;;;3.00;;
4323;SDS011;2175;51.018;6.994;2023-12-28T07:04:47;4.10;;;2.80;;
4323;SDS011;2175;51.018;6.994;2023-12-28T07:07:13;6.30;;;2.70;;
4323;SDS011;2175;51.018;6.994;2023-12-28T07:09:39;7.93;;;2.10;;
4323;SDS011;2175;51.018;6.994;2023-12-28T07:12:06;6.40;;;3.20;;
4323;SDS011;2175;51.018;6.994;2023-12-28T07:14:32;4.50;;;2.73;;
4323;SDS011;2175;51.018;6.994;2023-12-28T07:17:01;6.90;;;2.97;;
4323;SDS011;2175;51.018;6.994;2023-12-28T07:19:27;7.50;;;3.40;;
4323;SDS011;2175;51.018;6.994;2023-12-28T07:21:53;9.07;;;2.70;;
4323;SDS011;2175;51.018;6.994;2023-12-28T07:24:19;6.57;;;2.60;;
4323;SDS011;2175;51.018;6.994;2023-12-28T07:26:45;7.43;;;3.10;;
4323;SDS011;2175;51.018;6.994;2023-12-28T07:29:12;7.13;;;2.90;;
4323;SDS011;2175;51.018;6.994;2023-12-28T07:31:38;4.70;;;2.80;;
4323;SDS011;2175;51.018;6.994;2023-12-28T07:34:04;6.23;;;2.90;;
4323;SDS011;2175;51.018;6.994;2023-12-28T07:36:30;7.77;;;3.37;;
4323;SDS011;2175;51.018;6.994;2023-12-28T07:38:56;7.00;;;3.13;;
4323;SDS011;2175;51.018;6.994;2023-12-28T07:41:22;7.40;;;2.73;;
4323;SDS011;2175;51.018;6.994;2023-12-28T07:43:48;5.90;;;3.57;;
4323;SDS011;2175;51.018;6.994;2023-12-28T07:46:14;5.13;;;2.67;;
4323;SDS011;2175;51.018;6.994;2023-12-28T07:48:40;5.07;;;2.70;;
4323;SDS011;2175;51.018;6.994;2023-12-28T07:51:06;8.20;;;3.17;;
4323;SDS011;2175;51.018;6.994;2023-12-28T07:53:32;8.27;;;3.53;;
4323;SDS011;2175;51.018;6.994;2023-12-28T07:55:59;7.60;;;3.00;;
4323;SDS011;2175;51.018;6.994;2023-12-28T07:58:25;5.17;;;2.73;;
4323;SDS011;2175;51.018;6.994;2023-12-28T08:00:51;5.60;;;3.47;;
4323;SDS011;2175;51.018;6.994;2023-12-28T08:03:17;8.00;;;3.07;;
4323;SDS011;2175;51.018;6.994;2023-12-28T08:05:44;9.00;;;3.67;;
4323;SDS011;2175;51.018;6.994;2023-12-28T08:08:10;4.10;;;2.77;;
4323;SDS011;2175;51.018;6.994;2023-12-28T08:10:36;6.13;;;3.00;;
4323;SDS011;2175;51.018;6.994;2023-12-28T08:13:02;6.73;;;3.27;;
4323;SDS011;2175;51.018;6.994;2023-12-28T08:15:28;6.80;;;3.47;;
4323;SDS011;2175;51.018;6.994;2023-12-28T08:17:54;6.07;;;2.90;;
4323;SDS011;2175;51.018;6.994;2023-12-28T08:20:20;8.50;;;2.90;;
4323;SDS011;2175;51.018;6.994;2023-12-28T08:22:46;5.90;;;2.90;;
4323;SDS011;2175;51.018;6.994;2023-12-28T08:25:12;7.63;;;3.67;;
4323;SDS011;2175;51.018;6.994;2023-12-28T08:27:38;6.57;;;3.43;;
4323;SDS011;2175;51.018;6.994;2023-12-28T08:30:04;5.90;;;3.47;;
4323;SDS011;2175;51.018;6.994;2023-12-28T08:32:31;6.17;;;3.97;;
4323;SDS011;2175;51.018;6.994;2023-12-28T08:34:57;7.37;;;4.00;;
4323;SDS011;2175;51.018;6.994;2023-12-28T08:37:23;8.17;;;4.30;;
4323;SDS011;2175;51.018;6.994;2023-12-28T08:39:49;6.23;;;3.80;;
4323;SDS011;2175;51.018;6.994;2023-12-28T08:42:15;15.63;;;4.20;;
4323;SDS011;2175;51.018;6.994;2023-12-28T08:44:41;7.33;;;3.93;;
4323;SDS011;2175;51.018;6.994;2023-12-28T08:47:07;6.40;;;3.50;;
4323;SDS011;2175;51.018;6.994;2023-12-28T08:49:33;7.53;;;3.57;;
4323;SDS011;2175;51.018;6.994;2023-12-28T08:51:59;7.10;;;3.27;;
4323;SDS011;2175;51.018;6.994;2023-12-28T08:54:25;6.20;;;2.77;;
4323;SDS011;2175;51.018;6.994;2023-12-28T08:56:51;9.20;;;3.57;;
4323;SDS011;2175;51.018;6.994;2023-12-28T08:59:17;6.27;;;3.10;;
4323;SDS011;2175;51.018;6.994;2023-12-28T09:01:43;10.17;;;2.60;;
4323;SDS011;2175;51.018;6.994;2023-12-28T09:04:09;6.53;;;2.70;;
4323;SDS011;2175;51.018;6.994;2023-12-28T09:06:36;5.67;;;2.33;;
4323;SDS011;2175;51.018;6.994;2023-12-28T09:09:02;7.07;;;2.70;;
4323;SDS011;2175;51.018;6.994;2023-12-28T09:11:28;12.60;;;3.27;;
4323;SDS011;2175;51.018;6.994;2023-12-28T09:13:55;8.20;;;2.80;;
4323;SDS011;2175;51.018;6.994;2023-12-28T09:16:21;8.33;;;3.20;;
4323;SDS011;2175;51.018;6.994;2023-12-28T09:18:47;6.53;;;2.63;;
4323;SDS011;2175;51.018;6.994;2023-12-28T09:21:13;7.97;;;3.20;;
4323;SDS011;2175;51.018;6.994;2023-12-28T09:23:39;4.93;;;2.67;;
4323;SDS011;2175;51.018;6.994;2023-12-28T09:26:08;10.43;;;2.57;;
4323;SDS011;2175;51.018;6.994;2023-12-28T09:28:34;5.33;;;2.40;;
4323;SDS011;2175;51.018;6.994;2023-12-28T09:31:01;9.23;;;2.97;;
4323;SDS011;2175;51.018;6.994;2023-12-28T09:33:27;8.07;;;2.90;;
4323;SDS011;2175;51.018;6.994;2023-12-28T09:35:52;6.63;;;2.53;;
4323;SDS011;2175;51.018;6.994;2023-12-28T09:38:19;5.80;;;2.80;;
4323;SDS011;2175;51.018;6.994;2023-12-28T09:40:45;6.57;;;2.17;;
4323;SDS011;2175;51.018;6.994;2023-12-28T09:43:30;8.20;;;2.87;;
4323;SDS011;2175;51.018;6.994;2023-12-28T09:46:01;5.30;;;2.40;;
4323;SDS011;2175;51.018;6.994;2023-12-28T09:48:32;7.97;;;2.70;;
4323;SDS011;2175;51.018;6.994;2023-12-28T09:50:58;8.60;;;2.60;;
4323;SDS011;2175;51.018;6.994;2023-12-28T09:53:24;7.80;;;2.40;;
4323;SDS011;2175;51.018;6.994;2023-12-28T09:55:51;6.90;;;2.90;;
4323;SDS011;2175;51.018;6.994;2023-12-28T09:58:17;9.57;;;3.20;;
4323;SDS011;2175;51.018;6.994;2023-12-28T10:00:44;9.43;;;2.70;;
4323;SDS011;2175;51.018;6.994;2023-12-28T10:03:14;7.10;;;2.37;;
4323;SDS011;2175;51.018;6.994;2023-12-28T10:05:40;7.07;;;2.53;;
4323;SDS011;2175;51.018;6.994;2023-12-28T10:08:07;8.80;;;3.07;;
4323;SDS011;2175;51.018;6.994;2023-12-28T10:10:33;7.30;;;2.70;;
4323;SDS011;2175;51.018;6.994;2023-12-28T10:12:59;7.97;;;2.90;;
4323;SDS011;2175;51.018;6.994;2023-12-28T10:15:25;8.33;;;2.87;;
4323;SDS011;2175;51.018;6.994;2023-12-28T10:17:52;8.83;;;2.47;;
4323;SDS011;2175;51.018;6.994;2023-12-28T10:20:18;9.73;;;3.00;;
4323;SDS011;2175;51.018;6.994;2023-12-28T10:22:44;9.73;;;2.87;;
4323;SDS011;2175;51.018;6.994;2023-12-28T10:25:11;10.47;;;2.77;;
4323;SDS011;2175;51.018;6.994;2023-12-28T10:27:40;7.27;;;2.77;;
4323;SDS011;2175;51.018;6.994;2023-12-28T10:30:09;11.37;;;3.17;;
4323;SDS011;2175;51.018;6.994;2023-12-28T10:32:36;8.93;;;3.00;;
4323;SDS011;2175;51.018;6.994;2023-12-28T10:35:06;19.30;;;2.83;;
4323;SDS011;2175;51.018;6.994;2023-12-28T10:37:32;9.20;;;2.60;;
4323;SDS011;2175;51.018;6.994;2023-12-28T10:39:59;11.10;;;2.80;;
4323;SDS011;2175;51.018;6.994;2023-12-28T10:42:31;11.40;;;2.53;;
4323;SDS011;2175;51.018;6.994;2023-12-28T10:45:06;13.10;;;2.83;;
4323;SDS011;2175;51.018;6.994;2023-12-28T10:47:40;11.70;;;3.00;;
4323;SDS011;2175;51.018;6.994;2023-12-28T10:50:08;9.67;;;2.57;;
4323;SDS011;2175;51.018;6.994;2023-12-28T10:52:35;14.20;;;2.83;;
4323;SDS011;2175;51.018;6.994;2023-12-28T10:55:21;12.20;;;2.73;;
4323;SDS011;2175;51.018;6.994;2023-12-28T11:00:30;8.73;;;2.50;;
4323;SDS011;2175;51.018;6.994;2023-12-28T11:02:58;9.80;;;2.70;;
4323;SDS011;2175;51.018;6.994;2023-12-28T11:05:25;11.00;;;2.53;;
4323;SDS011;2175;51.018;6.994;2023-12-28T11:07:52;10.80;;;3.03;;
4323;SDS011;2175;51.018;6.994;2023-12-28T11:10:23;14.80;;;2.80;;
4323;SDS011;2175;51.018;6.994;2023-12-28T11:12:52;10.77;;;3.00;;
4323;SDS011;2175;51.018;6.994;2023-12-28T11:15:19;7.37;;;2.27;;
4323;SDS011;2175;51.018;6.994;2023-12-28T11:17:45;7.17;;;2.43;;
4323;SDS011;2175;51.018;6.994;2023-12-28T11:20:11;9.13;;;2.93;;
4323;SDS011;2175;51.018;6.994;2023-12-28T11:22:38;13.30;;;2.77;;
4323;SDS011;2175;51.018;6.994;2023-12-28T11:25:05;10.63;;;2.80;;
4323;SDS011;2175;51.018;6.994;2023-12-28T11:27:34;14.17;;;3.40;;
4323;SDS011;2175;51.018;6.994;2023-12-28T11:30:01;8.23;;;2.47;;
4323;SDS011;2175;51.018;6.994;2023-12-28T11:32:28;9.50;;;2.20;;
4323;SDS011;2175;51.018;6.994;2023-12-28T11:34:57;13.27;;;3.07;;
4323;SDS011;2175;51.018;6.994;2023-12-28T11:37:23;9.80;;;2.77;;
4323;SDS011;2175;51.018;6.994;2023-12-28T11:39:51;12.13;;;3.30;;
4323;SDS011;2175;51.018;6.994;2023-12-28T11:42:21;8.57;;;2.90;;
4323;SDS011;2175;51.018;6.994;2023-12-28T11:44:48;8.73;;;2.40;;
4323;SDS011;2175;51.018;6.994;2023-12-28T11:47:22;10.63;;;2.77;;
4323;SDS011;2175;51.018;6.994;2023-12-28T11:49:49;8.27;;;2.40;;
4323;SDS011;2175;51.018;6.994;2023-12-28T11:52:31;12.20;;;2.63;;
4323;SDS011;2175;51.018;6.994;2023-12-28T11:54:57;8.50;;;2.40;;
4323;SDS011;2175;51.018;6.994;2023-12-28T11:57:24;6.47;;;2.40;;
4323;SDS011;2175;51.018;6.994;2023-12-28T11:59:55;13.53;;;2.70;;
4323;SDS011;2175;51.018;6.994;2023-12-28T12:02:21;8.83;;;2.60;;
4323;SDS011;2175;51.018;6.994;2023-12-28T12:04:49;6.83;;;2.40;;
4323;SDS011;2175;51.018;6.994;2023-12-28T12:07:15;9.50;;;2.50;;
4323;SDS011;2175;51.018;6.994;2023-12-28T12:09:42;10.27;;;3.33;;
4323;SDS011;2175;51.018;6.994;2023-12-28T12:12:08;8.60;;;2.50;;
4323;SDS011;2175;51.018;6.994;2023-12-28T12:14:34;7.57;;;2.50;;
4323;SDS011;2175;51.018;6.994;2023-12-28T12:17:01;6.87;;;2.60;;
4323;SDS011;2175;51.018;6.994;2023-12-28T12:19:27;7.10;;;2.00;;
4323;SDS011;2175;51.018;6.994;2023-12-28T12:21:53;7.53;;;2.40;;
4323;SDS011;2175;51.018;6.994;2023-12-28T12:24:19;8.30;;;2.40;;
4323;SDS011;2175;51.018;6.994;2023-12-28T12:26:46;6.10;;;2.20;;
4323;SDS011;2175;51.018;6.994;2023-12-28T12:29:12;9.73;;;2.60;;
4323;SDS011;2175;51.018;6.994;2023-12-28T12:31:41;10.20;;;3.00;;
4323;SDS011;2175;51.018;6.994;2023-12-28T12:34:08;8.10;;;3.30;;
4323;SDS011;2175;51.018;6.994;2023-12-28T12:36:35;11.00;;;2.60;;
4323;SDS011;2175;51.018;6.994;2023-12-28T12:39:01;13.67;;;2.80;;
4323;SDS011;2175;51.018;6.994;2023-12-28T12:41:30;7.73;;;2.80;;
4323;SDS011;2175;51.018;6.994;2023-12-28T12:43:56;12.20;;;2.60;;
4323;SDS011;2175;51.018;6.994;2023-12-28T12:46:24;6.90;;;2.30;;
4323;SDS011;2175;51.018;6.994;2023-12-28T12:48:54;8.27;;;2.60;;
4323;SDS011;2175;51.018;6.994;2023-12-28T12:51:20;10.67;;;2.70;;
4323;SDS011;2175;51.018;6.994;2023-12-28T12:53:47;9.73;;;2.37;;
4323;SDS011;2175;51.018;6.994;2023-12-28T12:56:29;11.10;;;2.80;;
4323;SDS011;2175;51.018;6.994;2023-12-28T12:58:56;7.07;;;2.10;;
4323;SDS011;2175;51.018;6.994;2023-12-28T13:01:22;9.73;;;2.53;;
4323;SDS011;2175;51.018;6.994;2023-12-28T13:03:49;7.43;;;2.50;;
4323;SDS011;2175;51.018;6.994;2023-12-28T13:06:15;11.37;;;3.03;;
4323;SDS011;2175;51.018;6.994;2023-12-28T13:08:41;7.23;;;2.83;;
4323;SDS011;2175;51.018;6.994;2023-12-28T13:11:07;8.20;;;2.63;;
4323;SDS011;2175;51.018;6.994;2023-12-28T13:13:34;10.43;;;2.87;;
4323;SDS011;2175;51.018;6.994;2023-12-28T13:16:00;10.50;;;2.80;;
4323;SDS011;2175;51.018;6.994;2023-12-28T13:18:26;10.63;;;2.80;;
4323;SDS011;2175;51.018;6.994;2023-12-28T13:20:52;10.27;;;2.60;;
4323;SDS011;2175;51.018;6.994;2023-12-28T13:23:18;10.80;;;2.53;;
4323;SDS011;2175;51.018;6.994;2023-12-28T13:25:44;8.77;;;2.37;;
4323;SDS011;2175;51.018;6.994;2023-12-28T13:28:10;12.93;;;3.00;;
4323;SDS011;2175;51.018;6.994;2023-12-28T13:30:37;6.00;;;2.37;;
4323;SDS011;2175;51.018;6.994;2023-12-28T13:33:03;7.03;;;2.47;;
4323;SDS011;2175;51.018;6.994;2023-12-28T13:35:30;11.07;;;2.97;;
4323;SDS011;2175;51.018;6.994;2023-12-28T13:38:00;5.50;;;2.20;;
4323;SDS011;2175;51.018;6.994;2023-12-28T13:40:29;5.57;;;2.43;;
4323;SDS011;2175;51.018;6.994;2023-12-28T13:42:56;7.20;;;1.97;;
4323;SDS011;2175;51.018;6.994;2023-12-28T13:45:22;9.27;;;3.17;;
4323;SDS011;2175;51.018;6.994;2023-12-28T13:47:49;15.10;;;2.60;;
4323;SDS011;2175;51.018;6.994;2023-12-28T13:50:15;7.80;;;2.20;;
4323;SDS011;2175;51.018;6.994;2023-12-28T13:52:41;10.47;;;3.10;;
4323;SDS011;2175;51.018;6.994;2023-12-28T13:55:07;9.40;;;2.50;;
4323;SDS011;2175;51.018;6.994;2023-12-28T13:57:33;9.90;;;2.50;;
4323;SDS011;2175;51.018;6.994;2023-12-28T13:59:59;8.23;;;2.40;;
4323;SDS011;2175;51.018;6.994;2023-12-28T14:02:25;12.73;;;2.77;;
4323;SDS011;2175;51.018;6.994;2023-12-28T14:04:51;12.43;;;2.43;;
4323;SDS011;2175;51.018;6.994;2023-12-28T14:07:19;9.30;;;3.10;;
4323;SDS011;2175;51.018;6.994;2023-12-28T14:09:45;15.67;;;2.57;;
4323;SDS011;2175;51.018;6.994;2023-12-28T14:12:14;9.10;;;2.40;;
4323;SDS011;2175;51.018;6.994;2023-12-28T14:14:40;9.30;;;2.87;;
4323;SDS011;2175;51.018;6.994;2023-12-28T14:17:06;8.67;;;2.30;;
4323;SDS011;2175;51.018;6.994;2023-12-28T14:19:32;5.27;;;2.00;;
4323;SDS011;2175;51.018;6.994;2023-12-28T14:21:58;8.73;;;2.60;;
4323;SDS011;2175;51.018;6.994;2023-12-28T14:24:24;9.80;;;2.37;;
4323;SDS011;2175;51.018;6.994;2023-12-28T14:26:52;8.60;;;2.37;;
4323;SDS011;2175;51.018;6.994;2023-12-28T14:29:19;10.60;;;2.80;;
4323;SDS011;2175;51.018;6.994;2023-12-28T14:31:45;12.03;;;2.97;;
4323;SDS011;2175;51.018;6.994;2023-12-28T14:34:12;5.63;;;1.87;;
4323;SDS011;2175;51.018;6.994;2023-12-28T14:36:38;12.53;;;2.70;;
4323;SDS011;2175;51.018;6.994;2023-12-28T14:39:04;8.97;;;2.33;;
4323;SDS011;2175;51.018;6.994;2023-12-28T14:41:31;10.43;;;3.10;;
4323;SDS011;2175;51.018;6.994;2023-12-28T14:43:57;10.83;;;2.90;;
4323;SDS011;2175;51.018;6.994;2023-12-28T14:46:23;6.90;;;2.70;;
4323;SDS011;2175;51.018;6.994;2023-12-28T14:48:50;9.50;;;2.90;;
4323;SDS011;2175;51.018;6.994;2023-12-28T14:51:16;14.80;;;3.53;;
4323;SDS011;2175;51.018;6.994;2023-12-28T14:53:42;8.83;;;2.60;;
4323;SDS011;2175;51.018;6.994;2023-12-28T14:56:08;8.57;;;2.40;;
4323;SDS011;2175;51.018;6.994;2023-12-28T14:58:34;8.50;;;2.67;;
4323;SDS011;2175;51.018;6.994;2023-12-28T15:01:00;8.53;;;2.47;;
4323;SDS011;2175;51.018;6.994;2023-12-28T15:03:26;9.50;;;2.60;;
4323;SDS011;2175;51.018;6.994;2023-12-28T15:05:52;10.37;;;3.00;;
4323;SDS011;2175;51.018;6.994;2023-12-28T15:08:18;7.47;;;2.70;;
4323;SDS011;2175;51.018;6.994;2023-12-28T15:10:44;10.63;;;2.30;;